createdAt,value
2018-01-12T00:00:01.372Z,31.27
2018-01-12T00:02:29.525Z,34.83
2018-01-12T00:04:57.652Z,33.80
2018-01-12T00:07:25.777Z,34.53
2018-01-12T00:09:53.899Z,35.20
2018-01-12T00:12:22.052Z,32.43
2018-01-12T00:14:50.193Z,33.77
2018-01-12T00:17:18.339Z,36.17
2018-01-12T00:19:46.452Z,33.10
2018-01-12T00:22:14.605Z,30.80
2018-01-12T00:24:43.494Z,29.23
2018-01-12T00:27:12.435Z,31.60
2018-01-12T00:29:40.497Z,31.10
2018-01-12T00:32:08.618Z,28.83
2018-01-12T00:34:36.766Z,28.93
2018-01-12T00:37:05.163Z,27.80
2018-01-12T00:39:33.288Z,28.03
2018-01-12T00:42:01.834Z,26.73
2018-01-12T00:44:30.026Z,27.27
2018-01-12T00:46:58.895Z,27.57
2018-01-12T00:49:27.027Z,28.77
2018-01-12T00:51:55.159Z,27.37
2018-01-12T00:54:24.085Z,25.97
2018-01-12T00:56:52.192Z,29.73
2018-01-12T00:59:20.343Z,27.50
2018-01-12T01:01:48.462Z,28.90
2018-01-12T01:04:17.359Z,29.87
2018-01-12T01:06:46.248Z,28.27
2018-01-12T01:09:15.152Z,29.87
2018-01-12T01:11:44.030Z,29.00
2018-01-12T01:14:12.924Z,30.30
2018-01-12T01:16:41.812Z,30.33
2018-01-12T01:19:10.715Z,29.07
2018-01-12T01:21:38.836Z,28.43
2018-01-12T01:24:07.063Z,29.83
2018-01-12T01:26:35.172Z,28.30
2018-01-12T01:29:03.605Z,27.63
2018-01-12T01:31:32.494Z,27.67
2018-01-12T01:34:01.402Z,28.67
2018-01-12T01:36:29.516Z,29.13
2018-01-12T01:38:57.637Z,29.97
2018-01-12T01:41:26.531Z,28.00
2018-01-12T01:43:55.416Z,29.67
2018-01-12T01:46:24.317Z,29.30
2018-01-12T01:48:53.220Z,28.33
2018-01-12T01:51:21.367Z,29.40
2018-01-12T01:53:50.246Z,29.13
2018-01-12T01:56:18.409Z,28.93
2018-01-12T01:58:46.520Z,29.93
2018-01-12T02:01:14.655Z,30.43
2018-01-12T02:03:42.769Z,27.33
2018-01-12T02:06:10.918Z,29.23
2018-01-12T02:08:39.020Z,29.37
2018-01-12T02:11:07.150Z,30.63
2018-01-12T02:13:35.270Z,29.47
2018-01-12T02:16:03.424Z,31.50
2018-01-12T02:18:32.292Z,28.67
2018-01-12T02:21:00.423Z,28.60
2018-01-12T02:23:28.534Z,27.67
2018-01-12T02:25:56.663Z,30.23
2018-01-12T02:28:24.799Z,29.87
2018-01-12T02:30:53.697Z,30.10
2018-01-12T02:33:22.584Z,31.80
2018-01-12T02:35:51.499Z,30.30
2018-01-12T02:38:19.616Z,29.83
2018-01-12T02:40:47.765Z,28.47
2018-01-12T02:43:15.885Z,33.30
2018-01-12T02:45:44.034Z,29.00
2018-01-12T02:48:12.162Z,30.60
2018-01-12T02:50:40.290Z,30.43
2018-01-12T02:53:08.424Z,31.73
2018-01-12T02:55:37.321Z,31.67
2018-01-12T02:58:05.467Z,35.27
2018-01-12T03:00:33.578Z,31.07
2018-01-12T03:03:01.732Z,34.20
2018-01-12T03:05:29.856Z,30.47
2018-01-12T03:07:57.984Z,32.30
2018-01-12T03:10:26.107Z,32.70
2018-01-12T03:12:54.243Z,30.63
2018-01-12T03:15:22.355Z,31.70
2018-01-12T03:17:51.261Z,31.63
2018-01-12T03:20:20.134Z,33.33
2018-01-12T03:22:48.273Z,38.50
2018-01-12T03:25:16.380Z,34.70
2018-01-12T03:27:44.516Z,37.07
2018-01-12T03:30:12.639Z,34.93
2018-01-12T03:32:41.543Z,33.77
2018-01-12T03:35:09.695Z,32.70
2018-01-12T03:37:38.604Z,33.93
2018-01-12T03:40:07.496Z,33.30
2018-01-12T03:42:36.392Z,32.87
2018-01-12T03:45:05.384Z,32.00
2018-01-12T03:47:34.286Z,33.80
2018-01-12T03:50:02.913Z,31.57
2018-01-12T03:52:31.173Z,30.07
2018-01-12T03:54:59.284Z,33.07
2018-01-12T03:57:27.411Z,33.50
2018-01-12T03:59:56.305Z,32.30
2018-01-12T04:02:24.437Z,33.17
2018-01-12T04:04:53.320Z,33.87
2018-01-12T04:07:22.241Z,33.70
2018-01-12T04:09:50.353Z,33.17
2018-01-12T04:12:18.521Z,32.33
2018-01-12T04:14:46.643Z,33.83
2018-01-12T04:17:15.535Z,32.90
2018-01-12T04:19:44.425Z,32.83
2018-01-12T04:22:13.329Z,32.87
2018-01-12T04:24:41.441Z,35.17
2018-01-12T04:27:10.360Z,34.97
2018-01-12T04:29:38.579Z,31.53
2018-01-12T04:32:06.685Z,31.17
2018-01-12T04:34:34.813Z,32.40
2018-01-12T04:37:03.211Z,30.40
2018-01-12T04:39:31.384Z,36.90
2018-01-12T04:41:59.495Z,34.03
2018-01-12T04:44:27.632Z,36.63
2018-01-12T04:46:55.739Z,36.20
2018-01-12T04:49:24.153Z,34.60
2018-01-12T04:51:52.335Z,35.20
2018-01-12T04:54:20.898Z,34.63
2018-01-12T04:56:49.797Z,35.60
2018-01-12T04:59:18.751Z,36.70
2018-01-12T05:01:46.876Z,33.13
2018-01-12T05:04:15.023Z,35.97
2018-01-12T05:06:43.146Z,33.40
2018-01-12T05:09:11.288Z,36.50
2018-01-12T05:11:40.172Z,37.10
2018-01-12T05:14:09.092Z,34.53
2018-01-12T05:16:37.834Z,37.87
2018-01-12T05:19:06.890Z,37.97
2018-01-12T05:21:35.021Z,36.53
2018-01-12T05:24:04.214Z,37.10
2018-01-12T05:26:33.098Z,36.20
2018-01-12T05:29:01.380Z,36.00
2018-01-12T05:31:29.783Z,37.83
2018-01-12T05:33:57.934Z,37.67
2018-01-12T05:36:26.822Z,37.73
2018-01-12T05:38:54.965Z,38.07
2018-01-12T05:41:23.084Z,37.43
2018-01-12T05:43:52.025Z,38.43
2018-01-12T05:46:20.144Z,41.33
2018-01-12T05:48:49.059Z,38.40
2018-01-12T05:51:17.194Z,36.53
2018-01-12T05:53:46.090Z,37.27
2018-01-12T05:56:14.219Z,39.17
2018-01-12T05:58:42.348Z,40.17
2018-01-12T06:01:23.074Z,37.73
2018-01-12T06:04:02.916Z,36.97
2018-01-12T06:06:31.065Z,38.87
2018-01-12T06:08:59.181Z,38.53
2018-01-12T06:11:27.346Z,37.37
2018-01-12T06:13:55.475Z,36.60
2018-01-12T06:16:23.623Z,39.03
2018-01-12T06:18:52.513Z,37.40
2018-01-12T06:21:21.417Z,38.07
2018-01-12T06:23:50.289Z,36.97
2018-01-12T06:26:18.416Z,35.13
2018-01-12T06:28:46.526Z,36.27
2018-01-12T06:31:14.659Z,33.80
2018-01-12T06:33:42.787Z,38.87
2018-01-12T06:36:10.906Z,36.17
2018-01-12T06:38:39.772Z,33.13
2018-01-12T06:41:07.910Z,32.93
2018-01-12T06:43:36.018Z,34.27
2018-01-12T06:46:04.303Z,32.47
2018-01-12T06:48:32.466Z,36.33
2018-01-12T06:51:00.635Z,33.50
2018-01-12T06:53:28.769Z,36.67
2018-01-12T06:55:56.995Z,35.20
2018-01-12T06:58:25.147Z,35.53
2018-01-12T07:00:53.326Z,33.70
2018-01-12T07:03:23.351Z,33.87
2018-01-12T07:05:51.630Z,34.70
2018-01-12T07:08:19.931Z,33.10
2018-01-12T07:10:48.082Z,31.37
2018-01-12T07:13:16.281Z,31.80
2018-01-12T07:15:44.524Z,31.97
2018-01-12T07:18:13.570Z,32.30
2018-01-12T07:20:53.644Z,33.03
2018-01-12T07:23:33.569Z,32.10
2018-01-12T07:26:02.259Z,34.77
2018-01-12T07:28:30.429Z,35.10
2018-01-12T07:30:58.577Z,34.63
2018-01-12T07:33:26.716Z,34.20
2018-01-12T07:35:54.856Z,33.53
2018-01-12T07:38:22.960Z,35.00
2018-01-12T07:40:51.091Z,33.03
2018-01-12T07:43:19.189Z,33.50
2018-01-12T07:45:47.334Z,32.80
2018-01-12T07:48:15.431Z,31.43
2018-01-12T07:53:21.825Z,30.90
2018-01-12T07:55:50.400Z,36.00
2018-01-12T07:58:18.519Z,36.93
2018-01-12T08:00:52.408Z,35.83
2018-01-12T08:03:20.538Z,38.23
2018-01-12T08:05:48.674Z,35.80
2018-01-12T08:08:17.569Z,37.77
2018-01-12T08:10:46.365Z,37.33
2018-01-12T08:13:14.502Z,38.40
2018-01-12T08:15:42.630Z,38.20
2018-01-12T08:18:10.923Z,36.73
2018-01-12T08:20:39.114Z,38.70
2018-01-12T08:23:07.236Z,38.13
2018-01-12T08:25:35.365Z,37.80
2018-01-12T08:28:04.059Z,37.60
2018-01-12T08:30:32.196Z,35.10
2018-01-12T08:33:01.063Z,34.70
2018-01-12T08:35:29.181Z,35.40
2018-01-12T08:37:57.297Z,35.83
2018-01-12T08:40:26.193Z,34.33
2018-01-12T08:42:54.293Z,31.53
2018-01-12T08:45:22.432Z,31.93
2018-01-12T08:47:51.292Z,31.10
2018-01-12T08:50:19.423Z,32.70
2018-01-12T08:52:47.545Z,34.10
2018-01-12T08:55:15.649Z,35.03
2018-01-12T08:57:43.784Z,30.80
2018-01-12T09:00:11.886Z,31.53
2018-01-12T09:02:42.746Z,29.10
2018-01-12T09:05:10.848Z,30.70
2018-01-12T09:07:38.985Z,29.43
2018-01-12T09:10:07.081Z,30.30
2018-01-12T09:12:35.209Z,28.43
2018-01-12T09:15:21.925Z,28.87
2018-01-12T09:17:50.816Z,27.60
2018-01-12T09:20:19.686Z,29.57
2018-01-12T09:22:47.821Z,28.13
2018-01-12T09:25:26.358Z,28.40
2018-01-12T09:27:54.481Z,29.47
2018-01-12T09:30:22.592Z,30.47
2018-01-12T09:32:52.258Z,30.10
2018-01-12T09:35:21.173Z,33.20
2018-01-12T09:38:01.488Z,30.67
2018-01-12T09:40:31.508Z,32.83
2018-01-12T09:42:59.644Z,31.67
2018-01-12T09:45:27.753Z,30.30
2018-01-12T09:48:07.813Z,31.50
2018-01-12T09:50:35.918Z,33.63
2018-01-12T09:53:04.057Z,34.07
2018-01-12T09:55:32.225Z,29.77
2018-01-12T09:58:00.317Z,30.87
2018-01-12T10:00:40.975Z,31.13
2018-01-12T10:03:09.101Z,31.47
2018-01-12T10:05:37.230Z,32.40
2018-01-12T10:08:05.469Z,30.60
2018-01-12T10:10:33.588Z,55.17
2018-01-12T10:13:02.495Z,43.37
2018-01-12T10:15:30.644Z,31.63
2018-01-12T10:17:58.828Z,30.17
2018-01-12T10:20:29.802Z,32.20
2018-01-12T10:22:57.955Z,31.70
2018-01-12T10:25:26.064Z,32.33
2018-01-12T10:27:54.199Z,31.47
2018-01-12T10:30:39.122Z,33.50
2018-01-12T10:33:08.162Z,30.47
2018-01-12T10:35:54.990Z,31.97
2018-01-12T10:38:23.162Z,32.80
2018-01-12T10:40:54.164Z,31.03
2018-01-12T10:43:23.074Z,30.90
2018-01-12T10:46:08.486Z,32.40
2018-01-12T10:48:46.514Z,33.90
2018-01-12T10:51:20.542Z,32.37
2018-01-12T10:53:48.679Z,33.80
2018-01-12T10:56:16.806Z,31.90
2018-01-12T10:58:45.773Z,28.53
2018-01-12T11:01:13.886Z,25.63
2018-01-12T11:03:42.039Z,26.50
2018-01-12T11:06:10.922Z,30.70
2018-01-12T11:08:39.069Z,31.77
2018-01-12T11:11:07.184Z,30.53
2018-01-12T11:13:36.104Z,33.93
2018-01-12T11:16:04.228Z,33.93
2018-01-12T11:18:32.370Z,32.40
2018-01-12T11:21:00.479Z,33.90
2018-01-12T11:23:28.616Z,33.50
2018-01-12T11:25:56.741Z,33.93
2018-01-12T11:28:25.923Z,31.20
2018-01-12T11:30:54.036Z,32.10
2018-01-12T11:33:22.178Z,31.30
2018-01-12T11:35:50.290Z,32.47
2018-01-12T11:38:18.418Z,30.87
2018-01-12T11:40:46.532Z,32.47
2018-01-12T11:43:14.662Z,33.10
2018-01-12T11:45:42.779Z,31.77
2018-01-12T11:48:10.910Z,32.77
2018-01-12T11:50:39.023Z,33.73
2018-01-12T11:53:07.171Z,31.90
2018-01-12T11:55:35.284Z,33.27
2018-01-12T11:58:03.699Z,33.83
2018-01-12T12:00:31.925Z,32.03
2018-01-12T12:03:00.057Z,31.93
2018-01-12T12:05:28.945Z,29.17
2018-01-12T12:07:57.044Z,31.63
2018-01-12T12:10:25.954Z,29.20
2018-01-12T12:12:54.055Z,26.87
2018-01-12T12:15:22.196Z,29.50
2018-01-12T12:17:50.303Z,30.63
2018-01-12T12:20:18.446Z,27.60
2018-01-12T12:22:46.547Z,26.63
2018-01-12T12:25:14.690Z,25.57
2018-01-12T12:27:42.804Z,28.17
2018-01-12T12:30:10.936Z,27.90
2018-01-12T12:32:39.056Z,27.07
2018-01-12T12:35:07.843Z,25.50
2018-01-12T12:37:36.065Z,27.80
2018-01-12T12:40:04.275Z,27.80
2018-01-12T12:42:32.380Z,30.20
2018-01-12T12:45:00.516Z,25.30
2018-01-12T12:47:28.760Z,25.90
2018-01-12T12:49:57.664Z,27.30
2018-01-12T12:52:25.785Z,26.77
2018-01-12T12:54:53.926Z,27.50
2018-01-12T12:57:22.044Z,27.17
2018-01-12T12:59:50.180Z,25.87
2018-01-12T13:02:18.303Z,26.90
2018-01-12T13:04:46.432Z,26.10
2018-01-12T13:07:14.550Z,26.03
2018-01-12T13:09:42.683Z,27.13
2018-01-12T13:12:10.803Z,27.23
2018-01-12T13:14:39.693Z,28.10
2018-01-12T13:17:08.568Z,29.13
2018-01-12T13:19:36.698Z,29.30
2018-01-12T13:22:04.808Z,29.27
2018-01-12T13:24:32.962Z,27.33
2018-01-12T13:27:01.080Z,26.87
2018-01-12T13:29:29.260Z,26.73
2018-01-12T13:31:58.141Z,26.20
2018-01-12T13:34:27.044Z,28.80
2018-01-12T13:36:55.931Z,29.00
2018-01-12T13:39:24.819Z,26.10
2018-01-12T13:41:53.708Z,26.67
2018-01-12T13:44:22.633Z,26.37
2018-01-12T13:46:50.747Z,26.87
2018-01-12T13:49:18.889Z,25.90
2018-01-12T13:51:47.010Z,25.37
2018-01-12T13:54:15.142Z,22.37
2018-01-12T13:56:43.252Z,23.13
2018-01-12T13:59:12.149Z,23.13
2018-01-12T14:01:41.030Z,24.07
2018-01-12T14:04:09.149Z,24.80
2018-01-12T14:06:37.257Z,23.97
2018-01-12T14:09:05.377Z,24.20
2018-01-12T14:11:33.498Z,24.30
2018-01-12T14:14:01.726Z,23.57
2018-01-12T14:16:30.832Z,24.30
2018-01-12T14:18:59.707Z,23.83
2018-01-12T14:21:28.591Z,23.53
2018-01-12T14:23:57.486Z,22.47
2018-01-12T14:26:26.369Z,24.60
2018-01-12T14:28:55.271Z,24.13
2018-01-12T14:31:24.146Z,25.00
2018-01-12T14:33:53.046Z,24.67
2018-01-12T14:36:21.917Z,23.97
2018-01-12T14:38:50.069Z,23.30
2018-01-12T14:41:18.188Z,24.17
2018-01-12T14:43:47.094Z,24.57
2018-01-12T14:46:15.883Z,22.83
2018-01-12T14:48:43.984Z,24.63
2018-01-12T14:51:12.133Z,23.53
2018-01-12T14:53:40.256Z,24.77
2018-01-12T14:56:08.388Z,24.30
2018-01-12T14:58:36.523Z,24.47
2018-01-12T15:01:05.460Z,25.90
2018-01-12T15:03:33.575Z,25.43
2018-01-12T15:06:02.046Z,23.07
2018-01-12T15:08:30.279Z,24.17
2018-01-12T15:10:58.418Z,23.37
2018-01-12T15:13:26.660Z,25.30
2018-01-12T15:15:54.868Z,26.63
2018-01-12T15:18:23.747Z,25.20
2018-01-12T15:20:51.883Z,25.27
2018-01-12T15:23:20.000Z,23.60
2018-01-12T15:25:48.124Z,23.60
2018-01-12T15:28:16.251Z,24.40
2018-01-12T15:30:45.302Z,23.77
2018-01-12T15:33:15.043Z,25.90
2018-01-12T15:35:43.271Z,23.67
2018-01-12T15:38:12.837Z,23.13
2018-01-12T15:40:41.937Z,23.47
2018-01-12T15:43:10.812Z,23.70
2018-01-12T15:45:39.018Z,21.70
2018-01-12T15:48:07.128Z,23.10
2018-01-12T15:50:35.507Z,24.97
2018-01-12T15:53:04.651Z,25.43
2018-01-12T15:55:32.998Z,26.97
2018-01-12T15:58:01.109Z,25.20
2018-01-12T16:00:29.346Z,24.20
2018-01-12T16:02:57.581Z,24.93
2018-01-12T16:05:25.714Z,24.67
2018-01-12T16:07:53.841Z,26.77
2018-01-12T16:10:21.998Z,23.57
2018-01-12T16:12:50.104Z,24.97
2018-01-12T16:15:18.232Z,25.40
2018-01-12T16:17:46.344Z,24.10
2018-01-12T16:20:14.484Z,27.70
2018-01-12T16:22:43.454Z,24.87
2018-01-12T16:25:12.353Z,26.27
2018-01-12T16:27:41.326Z,24.23
2018-01-12T16:30:09.490Z,23.30
2018-01-12T16:32:37.738Z,27.90
2018-01-12T16:35:05.842Z,31.10
2018-01-12T16:37:34.197Z,33.30
2018-01-12T16:40:02.372Z,33.33
2018-01-12T16:42:30.518Z,28.80
2018-01-12T16:44:59.171Z,30.30
2018-01-12T16:47:27.833Z,28.13
2018-01-12T16:49:57.103Z,28.47
2018-01-12T16:52:25.311Z,26.07
2018-01-12T16:54:53.498Z,29.60
2018-01-12T16:57:21.670Z,27.60
2018-01-12T16:59:49.793Z,26.93
2018-01-12T17:02:17.954Z,25.70
2018-01-12T17:04:46.181Z,28.07
2018-01-12T17:07:14.410Z,27.80
2018-01-12T17:09:42.572Z,25.60
2018-01-12T17:12:11.782Z,26.33
2018-01-12T17:14:39.933Z,25.07
2018-01-12T17:17:08.173Z,26.80
2018-01-12T17:19:37.094Z,24.83
2018-01-12T17:22:06.044Z,23.40
2018-01-12T17:24:34.141Z,26.93
2018-01-12T17:27:04.901Z,26.97
2018-01-12T17:29:33.764Z,24.10
2018-01-12T17:32:02.693Z,25.50
2018-01-12T17:34:30.911Z,26.40
2018-01-12T17:36:59.159Z,26.03
2018-01-12T17:39:27.286Z,25.60
2018-01-12T17:41:55.421Z,25.03
2018-01-12T17:44:23.529Z,25.17
2018-01-12T17:46:51.675Z,24.13
2018-01-12T17:49:19.802Z,26.80
2018-01-12T17:51:48.694Z,25.87
2018-01-12T17:54:17.706Z,26.00
2018-01-12T17:56:45.850Z,25.63
2018-01-12T17:59:14.766Z,25.80
2018-01-12T18:01:42.928Z,24.80
2018-01-12T18:04:11.810Z,26.37
2018-01-12T18:06:40.701Z,27.70
2018-01-12T18:09:09.673Z,25.37
2018-01-12T18:11:37.791Z,26.20
2018-01-12T18:14:05.912Z,27.23
2018-01-12T18:16:34.274Z,26.00
2018-01-12T18:19:02.775Z,27.60
2018-01-12T18:21:31.163Z,25.87
2018-01-12T18:23:59.265Z,26.73
2018-01-12T18:26:27.569Z,25.97
2018-01-12T18:28:55.841Z,23.53
2018-01-12T18:31:23.999Z,23.03
2018-01-12T18:33:52.334Z,24.40
2018-01-12T18:36:20.594Z,25.77
2018-01-12T18:38:48.726Z,28.80
2018-01-12T18:41:16.851Z,26.33
2018-01-12T18:43:44.965Z,27.23
2018-01-12T18:46:13.105Z,25.90
2018-01-12T18:48:41.224Z,26.20
2018-01-12T18:51:09.348Z,26.27
2018-01-12T18:53:37.476Z,27.13
2018-01-12T18:56:05.593Z,25.80
2018-01-12T18:58:33.709Z,25.67
2018-01-12T19:01:02.236Z,24.73
2018-01-12T19:03:30.546Z,28.27
2018-01-12T19:05:58.785Z,25.20
2018-01-12T19:08:27.574Z,27.17
2018-01-12T19:10:55.685Z,27.57
2018-01-12T19:13:23.849Z,25.53
2018-01-12T19:15:51.987Z,24.57
2018-01-12T19:18:20.096Z,25.90
2018-01-12T19:20:48.962Z,26.13
2018-01-12T19:23:17.129Z,26.27
2018-01-12T19:25:45.269Z,27.23
2018-01-12T19:28:13.414Z,27.90
2018-01-12T19:30:41.617Z,27.50
2018-01-12T19:33:09.746Z,30.30
2018-01-12T19:35:37.877Z,27.87
2018-01-12T19:38:06.001Z,25.67
2018-01-12T19:40:34.141Z,26.23
2018-01-12T19:43:02.242Z,27.00
2018-01-12T19:45:30.354Z,26.13
2018-01-12T19:47:59.248Z,25.90
2018-01-12T19:50:27.358Z,26.10
2018-01-12T19:52:55.484Z,30.60
2018-01-12T19:55:24.380Z,26.97
2018-01-12T19:57:53.284Z,29.00
2018-01-12T20:00:21.398Z,27.03
2018-01-12T20:02:49.534Z,27.13
2018-01-12T20:05:19.133Z,27.13
2018-01-12T20:07:47.287Z,29.37
2018-01-12T20:10:16.196Z,29.03
2018-01-12T20:12:44.559Z,29.13
2018-01-12T20:15:12.691Z,28.70
2018-01-12T20:17:41.054Z,28.03
2018-01-12T20:20:09.176Z,27.27
2018-01-12T20:22:37.347Z,28.20
2018-01-12T20:25:05.715Z,27.23
2018-01-12T20:27:33.868Z,25.90
2018-01-12T20:30:02.386Z,24.87
2018-01-12T20:32:30.651Z,28.43
2018-01-12T20:34:58.738Z,28.53
2018-01-12T20:37:26.884Z,26.03
2018-01-12T20:39:55.031Z,30.60
2018-01-12T20:42:23.174Z,29.73
2018-01-12T20:44:52.091Z,27.80
2018-01-12T20:47:20.245Z,26.43
2018-01-12T20:49:49.158Z,27.27
2018-01-12T20:52:17.342Z,27.90
2018-01-12T20:54:45.464Z,30.70
2018-01-12T20:57:13.651Z,28.50
2018-01-12T20:59:42.526Z,27.40
2018-01-12T21:02:10.755Z,25.37
2018-01-12T21:04:38.931Z,26.73
2018-01-12T21:07:07.843Z,28.10
2018-01-12T21:09:35.979Z,28.67
2018-01-12T21:12:04.543Z,27.33
2018-01-12T21:14:33.515Z,26.03
2018-01-12T21:17:03.095Z,27.13
2018-01-12T21:19:31.801Z,26.70
2018-01-12T21:21:59.945Z,25.97
2018-01-12T21:24:28.094Z,25.23
2018-01-12T21:26:57.001Z,26.97
2018-01-12T21:29:25.119Z,26.20
2018-01-12T21:31:53.283Z,25.80
2018-01-12T21:34:21.388Z,27.00
2018-01-12T21:36:50.287Z,26.20
2018-01-12T21:39:19.243Z,26.10
2018-01-12T21:41:47.736Z,25.63
2018-01-12T21:44:17.838Z,25.97
2018-01-12T21:46:45.969Z,23.70
2018-01-12T21:49:14.166Z,26.10
2018-01-12T21:51:42.286Z,25.80
2018-01-12T21:54:10.397Z,25.00
2018-01-12T21:56:38.525Z,26.63
2018-01-12T21:59:06.633Z,25.10
2018-01-12T22:01:34.795Z,25.40
2018-01-12T22:04:03.081Z,25.60
2018-01-12T22:06:31.243Z,24.77
2018-01-12T22:09:00.121Z,24.17
2018-01-12T22:11:28.262Z,24.27
2018-01-12T22:13:56.375Z,26.17
2018-01-12T22:16:25.285Z,24.50
2018-01-12T22:18:53.385Z,23.70
2018-01-12T22:21:21.542Z,23.70
2018-01-12T22:23:49.637Z,28.53
2018-01-12T22:26:17.745Z,26.80
2018-01-12T22:28:45.888Z,27.47
2018-01-12T22:31:14.004Z,27.47
2018-01-12T22:33:42.906Z,25.93
2018-01-12T22:36:11.774Z,26.93
2018-01-12T22:38:39.902Z,24.83
2018-01-12T22:41:08.020Z,25.87
2018-01-12T22:43:36.142Z,25.40
2018-01-12T22:46:04.241Z,26.50
2018-01-12T22:48:32.371Z,26.10
2018-01-12T22:51:00.479Z,26.23
2018-01-12T22:53:28.785Z,24.17
2018-01-12T22:55:56.889Z,25.73
2018-01-12T22:58:25.010Z,23.70
2018-01-12T23:00:53.117Z,23.57
2018-01-12T23:03:22.016Z,27.43
2018-01-12T23:05:50.882Z,26.70
2018-01-12T23:08:19.019Z,25.03
2018-01-12T23:10:47.134Z,26.00
2018-01-12T23:13:15.271Z,24.97
2018-01-12T23:15:43.371Z,26.20
2018-01-12T23:18:11.486Z,25.30
2018-01-12T23:20:40.356Z,26.00
2018-01-12T23:23:08.507Z,26.33
2018-01-12T23:25:36.613Z,24.80
2018-01-12T23:28:04.733Z,25.97
2018-01-12T23:30:32.854Z,26.90
2018-01-12T23:33:00.979Z,26.17
2018-01-12T23:35:29.082Z,26.93
2018-01-12T23:37:57.205Z,27.17
2018-01-12T23:40:26.102Z,27.30
2018-01-12T23:42:54.230Z,33.03
2018-01-12T23:45:22.354Z,30.70
2018-01-12T23:47:50.489Z,30.23
2018-01-12T23:50:18.597Z,27.73
2018-01-12T23:52:46.729Z,26.63
2018-01-12T23:55:14.825Z,24.83
2018-01-12T23:57:43.712Z,27.10
